Flight Track Log - Related Links

Times and Time Zones

All times are in EDT time to prevent confusion due to time zone crossing. See the N143DE flight status page for this flight to view local times or setup timezone preferences in your user account.

Time Position Orientation Groundspeed Altitude Reporting Facility
EDT Latitude Longitude Course Direction KTS MPH feet Rate Location/Type
Fri 10:36:41 AM 34.0000 -84.6500 163° South 134 154 3,600  Level Atlanta TRACON
Fri 10:37:36 AM 33.9667 -84.6667 203° Southwest 199 229 4,100 157 Climbing Atlanta TRACON
Fri 10:38:36 AM 33.9000 -84.7000 203° Southwest 217 250 3,900 -100 Descending Atlanta TRACON
Fri 10:39:36 AM 33.8500 -84.7167 195° South 213 245 3,900 53 Level Atlanta TRACON
Fri 10:40:30 AM 33.8000 -84.7500 209° Southwest 216 249 4,000 53 Climbing Atlanta TRACON
Fri 10:41:30 AM 33.7500 -84.7667 195° South 228 262 4,000  Level Atlanta TRACON
Fri 10:42:00 AM 33.8125 -84.2092 163° South  Level Estimated
Fri 10:42:30 AM 33.6833 -84.7667 180° South 231 266 4,000  Level Atlanta TRACON
Fri 10:43:30 AM 33.6167 -84.7500 168° South 253 291 4,000  Level Atlanta TRACON
Fri 10:44:30 AM 33.5333 -84.7500 180° South 263 303 4,000  Level Atlanta TRACON
Fri 10:45:24 AM 33.4833 -84.7167 151° Southeast 272 313 4,000 1,053 Level Atlanta TRACON
Fri 10:46:24 AM 33.4167 -84.6667 148° Southeast 215 247 6,000 930 Climbing Atlanta TRACON
Fri 10:47:33 AM 33.3608 -84.6108 140° Southeast 256 295 6,000 4,127 Level Atlanta Center
Fri 10:49:33 AM 33.2569 -84.5033 139° Southeast 261 300 19,000 4,333 Climbing Atlanta Center
Fri 10:50:33 AM 33.2153 -84.4608 140° Southeast 217 250 19,000  Level Atlanta Center
Fri 10:51:33 AM 33.1614 -84.4061 140° Southeast 230 265 19,000  Level Atlanta Center
Fri 10:52:33 AM 33.1050 -84.3489 140° Southeast 260 299 19,000  Level Atlanta Center
Fri 10:53:33 AM 33.0633 -84.2942 132° Southeast 241 277 19,000 -4,000 Level Atlanta Center
Fri 10:54:33 AM 33.0197 -84.2319 130° Southeast 229 264 11,000 -3,950 Descending Atlanta Center
Fri 10:55:33 AM 32.9781 -84.1578 124° Southeast 254 292 11,100 4,000 Climbing Atlanta Center
Fri 10:56:33 AM 32.9467 -84.1031 124° Southeast 239 275 19,000 1,900 Climbing Atlanta Center
Fri 10:57:33 AM 32.9175 -84.0486 123° Southeast 215 247 14,900 -1,500 Descending Atlanta Center
Fri 10:58:33 AM 32.8925 -83.9992 121° Southeast 201 231 16,000 1,200 Climbing Atlanta Center
Fri 10:59:33 AM 32.8633 -83.9522 126° Southeast 191 220 17,300 1,300 Climbing Atlanta Center
Fri 11:00:33 AM 32.8361 -83.9003 122° Southeast 186 214 18,600 850 Climbing Atlanta Center
Fri 11:01:33 AM 32.8047 -83.8486 126° Southeast 186 214 19,000 250 Climbing Atlanta Center
Fri 11:02:33 AM 32.7628 -83.7869 129° Southeast 209 241 19,100 50 Climbing Atlanta Center
Fri 11:03:33 AM 32.7250 -83.7178 123° Southeast 237 273 19,100 -50 Level Atlanta Center
Fri 11:04:33 AM 32.6853 -83.6464 123° Southeast 249 287 19,000 -50 Descending Atlanta Center
Fri 11:05:33 AM 32.6619 -83.5675 109° East 255 293 19,000  Level Atlanta Center
Fri 11:06:33 AM 32.6511 -83.4839 99° East 255 293 19,000  Level Atlanta Center
Fri 11:07:33 AM 32.6403 -83.3975 98° East 255 293 19,000  Level Atlanta Center
Fri 11:08:33 AM 32.6275 -83.3136 100° East 260 299 19,000 -50 Level Atlanta Center
Fri 11:09:33 AM 32.6206 -83.2300 96° East 255 293 18,900 -650 Descending Atlanta Center
Fri 11:10:33 AM 32.6178 -83.1386 92° East 260 299 17,700 -1,200 Descending Atlanta Center
Fri 11:11:33 AM 32.6006 -83.0525 103° East 267 307 16,500 -1,300 Descending Atlanta Center
Fri 11:12:33 AM 32.5664 -82.9692 116° Southeast 267 307 15,100 -1,250 Descending Atlanta Center
Fri 11:13:33 AM 32.5386 -82.8833 111° Southeast 267 307 14,000 -1,100 Descending Atlanta Center
Fri 11:14:33 AM 32.5064 -82.8025 115° Southeast 267 307 12,900 -1,150 Descending Atlanta Center
Fri 11:15:33 AM 32.4908 -82.7239 103° East 267 307 11,700 -950 Descending Atlanta Center
Fri 11:16:33 AM 32.4900 -82.6378 91° East 261 300 11,000 -650 Descending Atlanta Center
Fri 11:17:33 AM 32.4931 -82.5464 88° East 249 287 10,400 -1,000 Descending Atlanta Center
Fri 11:18:33 AM 32.4900 -82.4678 93° East 249 287 9,000 -1,450 Descending Atlanta Center
Fri 11:19:33 AM 32.4908 -82.3767 89° East 254 292 7,500 -1,310 Descending Atlanta Center
Fri 11:21:27 AM 32.4925 -82.2128 89° East 270 311 5,200 -1,207 Descending Jacksonville Center
Fri 11:22:27 AM 32.4919 -82.1267 90° East 270 311 4,000 -600 Descending Jacksonville Center
Fri 11:23:27 AM 32.4894 -82.0478 92° East 260 299 4,000 -200 Level Jacksonville Center
Fri 11:24:27 AM 32.4847 -81.9667 94° East 232 267 3,600 -500 Descending Jacksonville Center
Fri 11:25:27 AM 32.4819 -81.8903 92° East 227 261 3,000 -600 Descending Jacksonville Center

Login

Don't have an account? Register now (free) for customized features, flight alerts, and more!